Sunday, November 19, 2017, 11:14 PM EST
Back to Local

KNTU, Oceana, Naval Air Station

Location: Virginia Beach, VA, United States Lat: 36.817
Local Time: 11:14 PM EST ( 4:14 GMT) Lon: -76.033
Time Zone: US/Eastern Elev: 22 ft

Show me the last for .
Show Decoded

2017-11-19 21:56 METAR KNTU 200256Z 32009KT 10SM CLR 08/M03 A2997 RMK SLP150 T00831028 =
2017-11-19 20:56 METAR KNTU 200156Z 34009KT 10SM SCT070 09/M01 A2994 RMK AO2 SLP140 T00891006 $ =
2017-11-19 19:56 METAR KNTU 200056Z 33014KT 10SM BKN080 11/M03 A2989 RMK AO2 SLP125 T01061028 $ =
2017-11-19 18:56 METAR KNTU 192356Z 30006KT 10SM BKN075 10/M02 A2986 RMK AO2 SLP113 T01001017
                 10156 20089 53040 $ =
2017-11-19 17:56 METAR KNTU 192256Z 29006KT 10SM FEW030 FEW060 10/M03 A2982 RMK SLP099 T01001028
                 =
2017-11-19 16:56 METAR KNTU 192156Z 31011G17KT 10SM FEW030 12/M03 A2978 RMK AO2 SLP087 T01221028
                 =
2017-11-19 15:56 METAR KNTU 192056Z 31011KT 10SM FEW030 14/M03 A2974 RMK AO2 SLP074 T01391033
                 53017 =
2017-11-19 14:56 METAR KNTU 191956Z 31012G19KT 10SM FEW030 FEW250 14/M03 A2971 RMK AO2 SLP064
                 T01441028 =
2017-11-19 13:56 METAR KNTU 191856Z 31015G24KT 10SM FEW030 FEW250 16/M01 A2970 RMK AO2 SLP059
                 T01561011 =
2017-11-19 12:56 METAR KNTU 191756Z COR 32018G23KT 10SM FEW030 FEW250 16/M01 A2969 RMK AO2 SLP057
                 60000 T01561006 10161 20144 51010 =
2017-11-19 11:56 METAR KNTU 191656Z 30014G23KT 10SM FEW030 FEW250 16/01 A2968 RMK AO2 SLP054
                 T01610011 =
2017-11-19 10:56 METAR KNTU 191556Z 31014G20KT 10SM FEW030 FEW250 16/03 A2968 RMK AO2 SLP053
                 T01610028 =
2017-11-19 09:56 METAR KNTU 191456Z 31011G19KT 10SM FEW030 FEW200 SCT250 16/03 A2966 RMK AO2
                 SLP047 60000 T01560033 53044 =
2017-11-19 08:56 METAR KNTU 191356Z 29015KT 10SM FEW030 BKN250 14/08 A2963 RMK AO2 SLP036
                 T01440078 =
2017-11-19 07:56 METAR KNTU 191256Z 27013G23KT 10SM FEW021 SCT026 BKN060 16/12 A2956 RMK AO2
                 RAE22 SLP013 P0000 T01610117 =
2017-11-19 06:56 METAR KNTU 191156Z 24013KT 10SM -RA SCT045 BKN060 OVC100 16/13 A2953 RMK AO2
                 SLP004 P0001 60002 70002 T01610133 10183 20161 53020 =
2017-11-19 05:56 METAR KNTU 191056Z 22014KT 10SM -RA FEW035 BKN044 OVC060 17/11 A2950 RMK AO2 PK
                 WND 20029/1006 SLP991 P0001 T01720111 =
2017-11-19 04:56 METAR KNTU 190956Z 22018G27KT 10SM -RA BKN046 OVC060 18/11 A2949 RMK AO2 PK WND
                 22030/0924 RAB45 SLP989 P0000 T01830111 =
2017-11-19 04:45 METAR KNTU 190945Z COR 22019G25KT 10SM -RA BKN045 OVC055 18/11 A2949 RMK AO2 PK
                 WND 22030/09024 RAB45 P0000 T01830111 =
2017-11-19 03:56 METAR KNTU 190856Z 21016G27KT 10SM SCT095 OVC190 18/11 A2948 RMK AO2 PK WND
                 21030/0825 SLP984 T01830106 58029 =
2017-11-19 02:59 METAR KNTU 190759Z COR 21015G24KT 10SM BKN170 OVC280 18/11 A2952 RMK AO2 PK WND
                 22031/0719 SLP997 T01830106 =
2017-11-19 02:56 METAR KNTU 190756Z 190756Z 21016G27KT 10SM BKN170 OVC280 18/11 A2952 RMK AO2 PK
                 WND 22031/0719 SLP997 T01830106 =
2017-11-19 01:56 METAR KNTU 190656Z 21017G27KT 10SM SCT180 OVC280 18/11 A2954 RMK AO2 PK WND
                 21027/0649 SLP007 T01830106 =
2017-11-18 23:56 METAR KNTU 190456Z 20014G23KT 10SM SCT180 OVC280 18/12 A2960 RMK AO2 SLP027
                 T01780117 401830000 =

Support USWX by starting your Amazon purchase here.